Time;durP1;ratioP1;P1;durP2;ratioP2;P2;SDS_P1;SDS_P2;PMS_P1;PMS_P2;Temp;Humidity;BMP_temperature;BMP_pressure;BME280_temperature;BME280_humidity;BME280_pressure;Samples;Min_cycle;Max_cycle;Signal;HPM_P1;HPM_P2
2023/02/10 00:00:26;;;;;;;;;;;;;;;8.90;40.57;102412.97;4942854;28;97901;-69
2023/02/10 00:02:52;;;;;;;;;;;;;;;8.89;40.38;102415.88;4923649;28;121715;-67
2023/02/10 00:05:18;;;;;;;;;;;;;;;8.87;40.46;102409.88;4945285;28;98633;-68
2023/02/10 00:07:44;;;;;;;;;;;;;;;8.87;40.07;102407.19;4908165;28;128363;-68
2023/02/10 00:10:10;;;;;;;;;;;;;;;8.84;40.17;102398.50;4924470;28;127332;-67
2023/02/10 00:12:37;;;;;;;;;;;;;;;8.83;40.65;102396.84;4930257;28;122407;-67
2023/02/10 00:15:04;;;;;;;;;;;;;;;8.83;40.94;102404.09;4923601;28;98285;-68
2023/02/10 00:17:30;;;;;;;;;;;;;;;8.80;40.44;102402.66;4938184;28;125305;-67
2023/02/10 00:19:56;;;;;;;;;;;;;;;8.80;40.29;102404.50;4924432;28;128099;-68
2023/02/10 00:22:22;;;;;;;;;;;;;;;8.78;40.73;102398.50;4957480;28;118540;-68
2023/02/10 00:24:47;;;;;;;;;;;;;;;8.78;40.78;102402.03;4955415;28;128647;-68
2023/02/10 00:27:13;;;;;;;;;;;;;;;8.76;40.79;102396.03;4918734;28;127670;-69
2023/02/10 00:29:39;;;;;;;;;;;;;;;8.75;40.41;102389.00;4925659;28;126970;-67
2023/02/10 00:32:05;;;;;;;;;;;;;;;8.74;40.00;102394.59;4924531;28;125104;-68
2023/02/10 00:34:31;;;;;;;;;;;;;;;8.71;40.56;102401.19;4946018;28;128687;-68
2023/02/10 00:36:57;;;;;;;;;;;;;;;8.70;40.75;102402.25;4941450;28;115059;-68
2023/02/10 00:39:23;;;;;;;;;;;;;;;8.70;40.99;102396.03;4940273;28;127230;-67
2023/02/10 00:41:49;;;;;;;;;;;;;;;8.69;40.47;102403.28;4923921;28;120665;-67
2023/02/10 00:44:15;;;;;;;;;;;;;;;8.69;40.18;102399.78;4937655;28;127624;-67
2023/02/10 00:46:40;;;;;;;;;;;;;;;8.67;40.58;102402.66;4923317;28;130165;-67
2023/02/10 00:49:06;;;;;;;;;;;;;;;8.67;40.63;102391.06;4925684;28;125760;-67
2023/02/10 00:51:32;;;;;;;;;;;;;;;8.65;40.39;102403.91;4923008;28;124049;-68
2023/02/10 00:53:58;;;;;;;;;;;;;;;8.65;40.22;102411.97;4939737;28;98240;-68
2023/02/10 00:56:24;;;;;;;;;;;;;;;8.65;40.62;102422.72;4929014;28;128529;-67
2023/02/10 00:58:50;;;;;;;;;;;;;;;8.62;40.95;102423.97;4940023;28;127783;-68
2023/02/10 01:01:16;;;;;;;;;;;;;;;8.63;40.13;102432.84;4939193;28;123927;-67
2023/02/10 01:03:42;;;;;;;;;;;;;;;8.60;40.57;102432.22;4940772;28;98418;-67
2023/02/10 01:06:08;;;;;;;;;;;;;;;8.59;40.32;102435.94;4940271;28;123907;-68
2023/02/10 01:08:34;;;;;;;;;;;;;;;8.58;40.43;102439.69;4956369;28;119481;-68
2023/02/10 01:11:05;;;;;;;;;;;;;;;8.56;40.26;102436.34;4928068;28;102312;-67
2023/02/10 01:13:33;;;;;;;;;;;;;;;8.56;40.26;102447.09;4927705;28;123877;-67
2023/02/10 01:15:59;;;;;;;;;;;;;;;8.56;40.68;102440.91;4926450;28;98467;-67
2023/02/10 01:18:25;;;;;;;;;;;;;;;8.54;40.68;102438.44;4939499;28;126567;-68
2023/02/10 01:20:51;;;;;;;;;;;;;;;8.53;40.27;102434.09;4940791;28;123364;-67
2023/02/10 01:23:16;;;;;;;;;;;;;;;8.53;40.72;102430.59;4923619;28;114918;-67
2023/02/10 01:25:42;;;;;;;;;;;;;;;8.51;40.23;102430.78;4918886;28;126368;-68
2023/02/10 01:28:09;;;;;;;;;;;;;;;8.52;40.51;102434.28;4938594;28;130841;-68
2023/02/10 01:30:34;;;;;;;;;;;;;;;8.53;40.42;102439.47;4924579;28;98765;-67
2023/02/10 01:33:00;;;;;;;;;;;;;;;8.52;40.15;102439.66;4927709;28;108055;-67
2023/02/10 01:35:26;;;;;;;;;;;;;;;8.53;40.30;102438.66;4939529;28;128090;-67
2023/02/10 01:37:54;;;;;;;;;;;;;;;8.53;40.00;102438.66;4922366;28;112146;-67
2023/02/10 01:40:20;;;;;;;;;;;;;;;8.54;40.52;102432.22;4937895;28;97985;-66
2023/02/10 01:42:46;;;;;;;;;;;;;;;8.53;40.25;102426.03;4941549;28;120104;-67
2023/02/10 01:45:35;;;;;;;;;;;;;;;8.55;40.70;102426.63;4924872;28;100000;-66
2023/02/10 01:48:01;;;;;;;;;;;;;;;8.57;40.07;102421.06;4923716;28;121213;-66
2023/02/10 01:50:29;;;;;;;;;;;;;;;8.57;40.62;102407.63;4939510;28;100539;-67
2023/02/10 01:52:54;;;;;;;;;;;;;;;8.58;40.44;102414.66;4924098;28;124401;-66
2023/02/10 01:55:22;;;;;;;;;;;;;;;8.59;40.49;102413.63;4956577;28;126797;-66
2023/02/10 01:57:48;;;;;;;;;;;;;;;8.60;40.92;102412.56;4940212;28;111125;-67
2023/02/10 02:00:15;;;;;;;;;;;;;;;8.60;40.40;102416.09;4923576;28;98044;-68
2023/02/10 02:02:41;;;;;;;;;;;;;;;8.63;39.99;102422.09;4918283;28;121555;-66
2023/02/10 02:05:17;;;;;;;;;;;;;;;8.63;40.45;102422.91;4942621;28;126963;-68
2023/02/10 02:07:43;;;;;;;;;;;;;;;8.65;40.52;102420.03;4924005;28;99013;-67
2023/02/10 02:10:09;;;;;;;;;;;;;;;8.66;40.24;102419.00;4937754;28;98300;-67
2023/02/10 02:12:53;;;;;;;;;;;;;;;8.67;40.51;102416.09;4932379;28;122398;-67
2023/02/10 02:15:45;;;;;;;;;;;;;;;8.68;40.36;102408.84;4953932;28;99471;-68
2023/02/10 02:18:33;;;;;;;;;;;;;;;8.69;39.95;102414.03;4956713;28;98646;-67
2023/02/10 02:21:13;;;;;;;;;;;;;;;8.71;40.32;102421.88;4918737;28;97898;-68
2023/02/10 02:24:14;;;;;;;;;;;;;;;8.71;40.07;102433.47;4951321;28;120215;-68
2023/02/10 02:26:56;;;;;;;;;;;;;;;8.72;40.28;102427.03;4959683;28;98805;-68
2023/02/10 02:30:09;;;;;;;;;;;;;;;8.72;40.32;102416.28;4957682;28;97899;-67
2023/02/10 02:32:39;;;;;;;;;;;;;;;8.76;40.02;102406.81;4923247;28;122092;-68
2023/02/10 02:35:09;;;;;;;;;;;;;;;8.77;40.41;102413.00;4941638;28;99834;-67
2023/02/10 02:37:37;;;;;;;;;;;;;;;8.78;40.52;102415.47;4956823;28;122032;-68
2023/02/10 02:40:04;;;;;;;;;;;;;;;8.79;40.54;102418.97;4939061;28;128078;-68
2023/02/10 02:42:31;;;;;;;;;;;;;;;8.81;40.55;102419.63;4940635;28;118261;-68
2023/02/10 02:45:01;;;;;;;;;;;;;;;8.82;39.92;102415.88;4959018;28;115466;-68
2023/02/10 02:47:48;;;;;;;;;;;;;;;8.83;39.95;102415.66;4958789;28;98611;-67
2023/02/10 02:50:30;;;;;;;;;;;;;;;8.84;40.05;102422.72;4938583;28;100255;-67
2023/02/10 02:53:08;;;;;;;;;;;;;;;8.84;40.34;102408.41;4959276;28;98152;-68
2023/02/10 02:56:00;;;;;;;;;;;;;;;8.83;40.02;102421.03;4923952;28;116780;-68
2023/02/10 02:58:42;;;;;;;;;;;;;;;8.85;40.60;102413.59;4958839;28;98685;-67
2023/02/10 03:01:15;;;;;;;;;;;;;;;8.87;40.06;102424.16;4922885;28;116391;-67
2023/02/10 03:03:41;;;;;;;;;;;;;;;8.88;39.92;102435.72;4956707;28;107943;-68
2023/02/10 03:06:07;;;;;;;;;;;;;;;8.89;40.69;102446.28;4943120;28;98517;-68
2023/02/10 03:08:34;;;;;;;;;;;;;;;8.90;40.82;102449.81;4926704;28;98219;-67
2023/02/10 03:11:00;;;;;;;;;;;;;;;8.90;40.56;102456.00;4943149;28;98178;-68
2023/02/10 03:13:26;;;;;;;;;;;;;;;8.92;40.30;102453.94;4926423;28;98387;-66
2023/02/10 03:15:52;;;;;;;;;;;;;;;8.93;40.34;102452.09;4925708;28;125811;-66
2023/02/10 03:18:17;;;;;;;;;;;;;;;8.92;40.34;102453.94;4925932;28;98139;-66
2023/02/10 03:20:43;;;;;;;;;;;;;;;8.94;40.53;102464.50;4943914;28;128166;-67
2023/02/10 03:23:10;;;;;;;;;;;;;;;8.94;40.60;102453.72;4923803;28;98298;-67
2023/02/10 03:25:36;;;;;;;;;;;;;;;8.93;40.01;102455.59;4925990;28;128670;-68
2023/02/10 03:28:02;;;;;;;;;;;;;;;8.93;40.91;102447.53;4941497;28;104848;-68
2023/02/10 03:30:28;;;;;;;;;;;;;;;8.93;40.47;102452.91;4944989;28;97918;-67
2023/02/10 03:32:54;;;;;;;;;;;;;;;8.93;40.65;102460.97;4958279;28;116386;-67
2023/02/10 03:35:20;;;;;;;;;;;;;;;8.93;40.60;102460.16;4926142;28;97986;-67
2023/02/10 03:37:46;;;;;;;;;;;;;;;8.93;40.28;102463.66;4940273;28;128082;-67
2023/02/10 03:40:12;;;;;;;;;;;;;;;8.92;40.59;102467.41;4941916;28;123483;-67
2023/02/10 03:42:38;;;;;;;;;;;;;;;8.93;40.85;102462.84;4926179;28;98068;-67
2023/02/10 03:45:04;;;;;;;;;;;;;;;8.93;41.02;102468.22;4924452;28;127055;-69
2023/02/10 03:47:30;;;;;;;;;;;;;;;8.91;40.79;102468.41;4956090;28;98045;-68
2023/02/10 03:49:56;;;;;;;;;;;;;;;8.92;40.69;102466.53;4939431;28;105676;-68
2023/02/10 03:52:22;;;;;;;;;;;;;;;8.92;40.72;102472.78;4939712;28;123412;-67
2023/02/10 03:54:48;;;;;;;;;;;;;;;8.93;40.62;102469.03;4922488;28;99368;-67
2023/02/10 03:57:14;;;;;;;;;;;;;;;8.93;40.39;102470.91;4939515;28;127736;-68
2023/02/10 03:59:40;;;;;;;;;;;;;;;8.93;40.19;102468.22;4944970;28;98092;-65
2023/02/10 04:02:06;;;;;;;;;;;;;;;8.93;40.85;102463.66;4924434;28;121664;-67
2023/02/10 04:04:32;;;;;;;;;;;;;;;8.93;40.47;102468.22;4924264;28;99638;-67
2023/02/10 04:06:58;;;;;;;;;;;;;;;8.93;40.43;102470.91;4924029;28;111461;-67
2023/02/10 04:09:24;;;;;;;;;;;;;;;8.92;40.00;102467.41;4936644;28;127755;-67
2023/02/10 04:11:50;;;;;;;;;;;;;;;8.93;40.30;102469.03;4935747;28;122482;-67
2023/02/10 04:14:16;;;;;;;;;;;;;;;8.93;40.65;102469.03;4933754;28;113452;-67
2023/02/10 04:16:41;;;;;;;;;;;;;;;8.93;40.53;102481.69;4919348;28;113665;-67
2023/02/10 04:19:07;;;;;;;;;;;;;;;8.92;40.74;102462.03;4930689;28;127739;-67
2023/02/10 04:21:33;;;;;;;;;;;;;;;8.93;40.45;102463.66;4923059;28;98219;-67
2023/02/10 04:23:59;;;;;;;;;;;;;;;8.91;40.25;102471.09;4918957;28;129201;-67
2023/02/10 04:26:25;;;;;;;;;;;;;;;8.91;40.89;102473.78;4922367;28;99891;-67
2023/02/10 04:28:51;;;;;;;;;;;;;;;8.91;40.69;102479.19;4907618;28;127935;-67
2023/02/10 04:31:17;;;;;;;;;;;;;;;8.91;40.48;102473.78;4901939;28;121141;-67
2023/02/10 04:33:43;;;;;;;;;;;;;;;8.91;40.59;102476.47;4904610;28;126304;-67
2023/02/10 04:36:09;;;;;;;;;;;;;;;8.91;40.60;102481.88;4920824;28;115088;-67
2023/02/10 04:38:35;;;;;;;;;;;;;;;8.91;40.38;102483.72;4919123;28;126846;-67
2023/02/10 04:41:02;;;;;;;;;;;;;;;8.91;40.87;102472.97;4923499;28;112361;-67
2023/02/10 04:43:28;;;;;;;;;;;;;;;8.92;40.55;102477.31;4923409;28;98248;-67
2023/02/10 04:45:54;;;;;;;;;;;;;;;8.90;40.80;102482.91;4904038;28;124278;-67
2023/02/10 04:48:21;;;;;;;;;;;;;;;8.91;41.02;102483.72;4902722;28;127879;-66
2023/02/10 04:50:46;;;;;;;;;;;;;;;8.92;41.04;102488.06;4935166;28;98092;-66
2023/02/10 04:53:12;;;;;;;;;;;;;;;8.91;40.53;102487.25;4920104;28;127358;-67
2023/02/10 04:55:38;;;;;;;;;;;;;;;8.91;40.67;102486.41;4911049;28;129319;-67
2023/02/10 04:58:04;;;;;;;;;;;;;;;8.91;40.63;102486.41;4908461;28;97905;-67
2023/02/10 05:00:30;;;;;;;;;;;;;;;8.91;40.77;102486.41;4918069;28;122140;-67
2023/02/10 05:02:57;;;;;;;;;;;;;;;8.92;40.25;102493.44;4934796;28;98284;-67
2023/02/10 05:05:24;;;;;;;;;;;;;;;8.90;40.29;102485.59;4921067;28;127967;-68
2023/02/10 05:07:53;;;;;;;;;;;;;;;8.91;40.64;102491.78;4921128;28;98179;-66
2023/02/10 05:10:19;;;;;;;;;;;;;;;8.91;40.52;102497.19;4919539;28;121697;-67
2023/02/10 05:12:45;;;;;;;;;;;;;;;8.90;40.81;102501.72;4906076;28;98064;-69
2023/02/10 05:15:12;;;;;;;;;;;;;;;8.90;40.60;102501.72;4940198;28;128002;-67
2023/02/10 05:17:39;;;;;;;;;;;;;;;8.89;40.25;102502.78;4942749;28;98240;-68
2023/02/10 05:20:05;;;;;;;;;;;;;;;8.89;40.12;102508.16;4939999;28;98175;-68
2023/02/10 05:22:31;;;;;;;;;;;;;;;8.89;40.87;102504.63;4941152;28;122294;-67
2023/02/10 05:24:57;;;;;;;;;;;;;;;8.88;41.05;102509.16;4934936;28;126460;-67
2023/02/10 05:27:24;;;;;;;;;;;;;;;8.87;40.80;102512.91;4921766;28;97947;-67
2023/02/10 05:29:50;;;;;;;;;;;;;;;8.89;40.48;102515.41;4923595;28;107027;-66
2023/02/10 05:32:16;;;;;;;;;;;;;;;8.88;40.30;102519.94;4940029;28;127318;-67
2023/02/10 05:34:42;;;;;;;;;;;;;;;8.88;40.27;102519.09;4957555;28;117843;-66
2023/02/10 05:37:08;;;;;;;;;;;;;;;8.87;40.67;102530.91;4911285;28;128806;-67
2023/02/10 05:39:33;;;;;;;;;;;;;;;8.87;40.50;102528.22;4922510;28;101635;-66
2023/02/10 05:42:00;;;;;;;;;;;;;;;8.84;40.32;102526.75;4937668;28;127943;-67
2023/02/10 05:44:26;;;;;;;;;;;;;;;8.84;40.80;102534.81;4933911;28;99832;-68
2023/02/10 05:46:52;;;;;;;;;;;;;;;8.83;40.44;102550.13;4936561;28;98155;-66
2023/02/10 05:49:18;;;;;;;;;;;;;;;8.83;40.58;102554.69;4922501;28;112561;-68
2023/02/10 05:51:44;;;;;;;;;;;;;;;8.81;40.20;102551.38;4928723;28;127915;-67
2023/02/10 05:54:11;;;;;;;;;;;;;;;8.80;40.47;102563.16;4922787;28;99905;-67
2023/02/10 05:56:37;;;;;;;;;;;;;;;8.78;40.67;102551.78;4941642;28;98239;-68
2023/02/10 05:59:03;;;;;;;;;;;;;;;8.77;40.18;102553.66;4937723;28;122497;-66
2023/02/10 06:01:28;;;;;;;;;;;;;;;8.76;40.78;102549.31;4923886;28;122787;-66
2023/02/10 06:03:55;;;;;;;;;;;;;;;8.76;40.30;102548.47;4939137;28;128530;-67
2023/02/10 06:06:20;;;;;;;;;;;;;;;8.76;40.56;102552.00;4940174;28;101046;-67
2023/02/10 06:08:49;;;;;;;;;;;;;;;8.76;41.03;102546.63;4940038;28;122865;-67
2023/02/10 06:11:15;;;;;;;;;;;;;;;8.77;41.04;102548.28;4919155;28;127773;-66
2023/02/10 06:13:41;;;;;;;;;;;;;;;8.78;40.60;102551.78;4935500;28;128431;-66
2023/02/10 06:16:08;;;;;;;;;;;;;;;8.79;40.05;102548.06;4919098;28;98946;-67
2023/02/10 06:18:34;;;;;;;;;;;;;;;8.80;40.66;102555.09;4911661;28;108055;-68
2023/02/10 06:20:59;;;;;;;;;;;;;;;8.80;40.71;102564.00;4902694;28;130695;-68
2023/02/10 06:23:25;;;;;;;;;;;;;;;8.82;41.03;102566.47;4920036;28;99575;-68
2023/02/10 06:25:54;;;;;;;;;;;;;;;8.81;40.59;102554.06;4935793;28;101718;-68
2023/02/10 06:28:22;;;;;;;;;;;;;;;8.83;40.17;102558.19;4929760;28;98155;-67
2023/02/10 06:30:48;;;;;;;;;;;;;;;8.84;40.69;102559.03;4934917;28;97943;-68
2023/02/10 06:33:13;;;;;;;;;;;;;;;8.84;40.80;102562.56;4916284;28;129076;-68
2023/02/10 06:35:39;;;;;;;;;;;;;;;8.87;40.78;102568.56;4932648;28;127302;-67
2023/02/10 06:38:05;;;;;;;;;;;;;;;8.87;40.91;102576.63;4919967;28;121925;-67
2023/02/10 06:40:31;;;;;;;;;;;;;;;8.89;40.46;102582.63;4897517;28;128296;-68
2023/02/10 06:42:57;;;;;;;;;;;;;;;8.89;40.38;102582.63;4919164;28;128140;-68
2023/02/10 06:45:23;;;;;;;;;;;;;;;8.91;40.33;102583.25;4904604;28;99387;-67
2023/02/10 06:47:49;;;;;;;;;;;;;;;8.93;40.07;102586.56;4915359;28;121953;-68
2023/02/10 06:50:17;;;;;;;;;;;;;;;8.96;40.53;102584.31;4919289;28;122656;-67
2023/02/10 06:52:43;;;;;;;;;;;;;;;8.98;40.13;102576.84;4935613;28;99260;-67
2023/02/10 06:55:09;;;;;;;;;;;;;;;9.02;40.70;102578.09;4903950;28;98005;-67
2023/02/10 06:57:38;;;;;;;;;;;;;;;9.07;40.37;102574.78;4916365;28;121417;-67
2023/02/10 07:00:07;;;;;;;;;;;;;;;9.13;40.28;102579.34;4902725;28;98044;-67
2023/02/10 07:02:33;;;;;;;;;;;;;;;9.19;40.74;102573.13;4935015;28;98287;-69
2023/02/10 07:04:59;;;;;;;;;;;;;;;9.23;40.11;102577.06;4937237;28;97901;-68
2023/02/10 07:07:25;;;;;;;;;;;;;;;9.26;39.98;102571.25;4919372;28;122475;-67
2023/02/10 07:09:53;;;;;;;;;;;;;;;9.30;40.12;102577.06;4934911;28;100200;-69
2023/02/10 07:12:19;;;;;;;;;;;;;;;9.35;40.42;102579.94;4931798;28;98197;-67
2023/02/10 07:14:45;;;;;;;;;;;;;;;9.38;40.49;102568.78;4927484;28;98133;-68
2023/02/10 07:17:11;;;;;;;;;;;;;;;9.44;40.35;102575.19;4943694;28;99043;-68
2023/02/10 07:19:37;;;;;;;;;;;;;;;9.50;39.97;102580.56;4926845;28;128047;-68
2023/02/10 07:22:06;;;;;;;;;;;;;;;9.58;40.44;102582.19;4929335;28;128845;-67
2023/02/10 07:24:32;;;;;;;;;;;;;;;9.66;40.68;102573.06;4943919;28;98090;-69
2023/02/10 07:26:58;;;;;;;;;;;;;;;9.73;40.24;102582.81;4929909;28;110536;-67
2023/02/10 07:29:24;;;;;;;;;;;;;;;9.79;40.67;102586.53;4939962;28;128184;-68
2023/02/10 07:31:50;;;;;;;;;;;;;;;9.87;40.64;102594.38;4926099;28;116936;-68
2023/02/10 07:34:19;;;;;;;;;;;;;;;9.97;40.19;102588.53;4955515;28;128067;-67
2023/02/10 07:36:45;;;;;;;;;;;;;;;10.07;39.81;102608.63;4929000;28;98392;-69
2023/02/10 07:39:11;;;;;;;;;;;;;;;10.15;39.84;102607.56;4940474;28;120360;-67
2023/02/10 07:41:37;;;;;;;;;;;;;;;10.22;40.06;102605.69;4921754;28;128378;-68
2023/02/10 07:44:03;;;;;;;;;;;;;;;10.32;39.95;102605.25;4938625;28;97993;-67
2023/02/10 07:46:29;;;;;;;;;;;;;;;10.46;39.69;102611.41;4937373;28;116980;-67
2023/02/10 07:48:55;;;;;;;;;;;;;;;10.57;39.81;102611.56;4957826;28;126926;-68
2023/02/10 07:51:21;;;;;;;;;;;;;;;10.70;40.26;102607.97;4920985;28;127354;-68
2023/02/10 07:53:46;;;;;;;;;;;;;;;10.87;39.39;102619.06;4926429;28;128282;-68
2023/02/10 07:56:12;;;;;;;;;;;;;;;11.09;39.32;102603.34;4940895;28;122699;-69
2023/02/10 07:58:38;;;;;;;;;;;;;;;11.32;39.24;102602.75;4924012;28;128645;-67
2023/02/10 08:01:08;;;;;;;;;;;;;;;11.52;39.48;102595.31;4941601;28;108226;-67
2023/02/10 08:03:34;;;;;;;;;;;;;;;11.67;39.29;102597.66;4934792;28;98154;-69
2023/02/10 08:06:00;;;;;;;;;;;;;;;11.73;39.32;102588.66;4937567;28;122259;-67
2023/02/10 08:08:26;;;;;;;;;;;;;;;11.80;39.27;102597.50;4940851;28;128490;-68
2023/02/10 08:10:52;;;;;;;;;;;;;;;11.96;39.25;102600.72;4940176;28;127398;-67
2023/02/10 08:13:18;;;;;;;;;;;;;;;11.97;39.46;102599.66;4920976;28;99075;-68
2023/02/10 08:15:43;;;;;;;;;;;;;;;12.08;39.43;102608.91;4922749;28;97958;-67
2023/02/10 08:18:10;;;;;;;;;;;;;;;12.16;39.23;102614.81;4934328;28;126372;-67
2023/02/10 08:20:35;;;;;;;;;;;;;;;12.15;39.44;102615.06;4918446;28;98056;-67
2023/02/10 08:23:01;;;;;;;;;;;;;;;12.16;39.56;102622.94;4921305;28;126906;-67
2023/02/10 08:25:27;;;;;;;;;;;;;;;12.62;39.16;102616.13;4908768;28;98042;-69
2023/02/10 08:27:53;;;;;;;;;;;;;;;13.22;38.67;102610.63;4919442;28;126084;-68
2023/02/10 08:30:19;;;;;;;;;;;;;;;13.83;38.46;102605.00;4936599;28;128687;-66
2023/02/10 08:32:45;;;;;;;;;;;;;;;14.06;38.17;102596.00;4922616;28;101973;-68
2023/02/10 08:35:11;;;;;;;;;;;;;;;14.28;38.63;102596.19;4903953;28;104482;-67
2023/02/10 08:37:37;;;;;;;;;;;;;;;14.36;38.55;102609.38;4905307;28;113914;-66
2023/02/10 08:40:05;;;;;;;;;;;;;;;14.60;38.77;102608.25;4917221;28;97881;-69
2023/02/10 08:42:31;;;;;;;;;;;;;;;14.74;38.35;102622.38;4921664;28;98290;-67
2023/02/10 08:44:57;;;;;;;;;;;;;;;15.14;38.20;102621.44;4904578;28;109020;-67
2023/02/10 08:47:23;;;;;;;;;;;;;;;15.27;38.50;102634.69;4919021;28;125639;-68
2023/02/10 08:49:49;;;;;;;;;;;;;;;15.12;38.79;102629.00;4938598;28;119023;-68
2023/02/10 08:52:15;;;;;;;;;;;;;;;15.10;39.03;102628.44;4917693;28;98125;-68
2023/02/10 08:54:41;;;;;;;;;;;;;;;15.27;38.71;102626.53;4909497;28;98347;-68
2023/02/10 08:57:07;;;;;;;;;;;;;;;15.38;38.81;102627.53;4916635;28;120479;-66
2023/02/10 08:59:33;;;;;;;;;;;;;;;15.33;38.89;102635.63;4920643;28;98074;-67
2023/02/10 09:01:59;;;;;;;;;;;;;;;15.31;38.81;102637.75;4936762;28;127383;-66
2023/02/10 09:04:25;;;;;;;;;;;;;;;15.26;38.98;102634.94;4919244;28;123056;-67
2023/02/10 09:06:51;;;;;;;;;;;;;;;15.36;38.67;102633.19;4887275;28;98274;-68
2023/02/10 09:09:21;;;;;;;;;;;;;;;15.48;38.80;102633.13;4902878;28;99739;-67
2023/02/10 09:11:47;;;;;;;;;;;;;;;15.74;38.71;102634.38;4920304;28;98101;-68
2023/02/10 09:14:13;;;;;;;;;;;;;;;15.77;38.73;102636.59;4951500;28;98113;-69
2023/02/10 09:16:39;;;;;;;;;;;;;;;15.89;38.56;102631.88;4939954;28;129916;-68
2023/02/10 09:19:05;;;;;;;;;;;;;;;16.02;38.62;102625.22;4925209;28;105097;-67
2023/02/10 09:21:31;;;;;;;;;;;;;;;16.21;38.55;102625.75;4942374;28;99657;-67
2023/02/10 09:23:57;;;;;;;;;;;;;;;16.42;38.51;102618.63;4940837;28;98323;-68
2023/02/10 09:26:22;;;;;;;;;;;;;;;16.53;38.63;102616.88;4932786;28;126876;-67
2023/02/10 09:28:48;;;;;;;;;;;;;;;16.74;38.46;102618.78;4924600;28;100485;-67
2023/02/10 09:31:17;;;;;;;;;;;;;;;17.03;38.41;102607.59;4936266;28;128908;-67
2023/02/10 09:33:43;;;;;;;;;;;;;;;17.51;38.00;102609.31;4940293;28;99335;-67
2023/02/10 09:36:17;;;;;;;;;;;;;;;17.56;38.29;102614.78;4936852;28;98098;-68
2023/02/10 09:38:43;;;;;;;;;;;;;;;17.73;38.20;102611.91;4923082;28;113711;-68
2023/02/10 09:41:33;;;;;;;;;;;;;;;17.83;38.30;102617.44;4925375;28;99069;-69
2023/02/10 09:44:28;;;;;;;;;;;;;;;17.97;38.13;102617.00;4933778;28;98251;-70
2023/02/10 09:47:22;;;;;;;;;;;;;;;17.68;38.69;102614.59;4941016;28;98321;-68
2023/02/10 09:50:01;;;;;;;;;;;;;;;17.49;38.64;102616.94;4954417;28;100002;-69
2023/02/10 09:52:30;;;;;;;;;;;;;;;17.28;38.97;102624.13;4941428;28;98027;-68
2023/02/10 09:54:56;;;;;;;;;;;;;;;17.04;38.99;102622.84;4955652;28;98147;-67
2023/02/10 09:57:36;;;;;;;;;;;;;;;16.93;39.20;102632.81;4937739;28;127393;-67
2023/02/10 10:00:03;;;;;;;;;;;;;;;16.75;39.20;102647.63;4911010;28;113696;-66
2023/02/10 10:02:33;;;;;;;;;;;;;;;17.05;38.88;102636.19;4940464;28;99113;-67
2023/02/10 10:05:00;;;;;;;;;;;;;;;17.18;38.78;102638.50;4940062;28;107129;-67
2023/02/10 10:07:30;;;;;;;;;;;;;;;16.79;39.09;102642.50;4923337;28;99154;-68
2023/02/10 10:10:01;;;;;;;;;;;;;;;16.49;39.53;102642.94;4940316;28;97968;-68
2023/02/10 10:12:27;;;;;;;;;;;;;;;16.22;39.55;102630.09;4940538;28;98836;-67
2023/02/10 10:14:53;;;;;;;;;;;;;;;16.00;39.73;102646.44;4924337;28;98084;-66
2023/02/10 10:17:48;;;;;;;;;;;;;;;15.81;39.83;102653.22;4937346;28;98332;-67
2023/02/10 10:20:48;;;;;;;;;;;;;;;15.58;39.73;102659.66;4939555;28;109056;-67
2023/02/10 10:23:23;;;;;;;;;;;;;;;15.37;39.79;102656.59;4924914;28;98146;-67
2023/02/10 10:26:09;;;;;;;;;;;;;;;15.22;40.06;102656.34;4955368;28;97843;-68
2023/02/10 10:29:17;;;;;;;;;;;;;;;15.07;39.81;102656.91;4922318;28;98453;-69
2023/02/10 10:31:45;;;;;;;;;;;;;;;15.21;39.52;102660.13;4928102;28;121449;-67
2023/02/10 10:34:15;;;;;;;;;;;;;;;15.27;39.47;102644.72;4922009;28;114115;-67
2023/02/10 10:36:49;;;;;;;;;;;;;;;15.28;39.44;102640.94;4919255;28;116976;-69
2023/02/10 10:39:36;;;;;;;;;;;;;;;15.34;39.66;102654.38;4932729;28;98125;-69
2023/02/10 10:42:12;;;;;;;;;;;;;;;15.42;39.41;102656.69;4949119;28;98793;-67
2023/02/10 10:44:38;;;;;;;;;;;;;;;15.58;39.31;102649.59;4952613;28;98411;-69
2023/02/10 10:47:20;;;;;;;;;;;;;;;15.87;38.93;102646.78;4925954;28;98029;-68
2023/02/10 10:49:46;;;;;;;;;;;;;;;16.15;38.87;102648.50;4928544;28;122380;-70
2023/02/10 10:52:31;;;;;;;;;;;;;;;16.32;38.56;102645.75;4940729;28;128485;-67
2023/02/10 10:54:57;;;;;;;;;;;;;;;16.30;38.84;102651.44;4942838;28;97924;-67
2023/02/10 10:57:25;;;;;;;;;;;;;;;16.25;38.90;102647.84;4936986;28;123294;-67
2023/02/10 10:59:58;;;;;;;;;;;;;;;16.14;39.02;102655.84;4931814;28;99888;-67
2023/02/10 11:02:24;;;;;;;;;;;;;;;16.04;39.40;102661.19;4941824;28;98389;-70
2023/02/10 11:05:11;;;;;;;;;;;;;;;15.88;39.43;102662.84;4920476;28;98069;-70
2023/02/10 11:07:38;;;;;;;;;;;;;;;15.73;39.54;102653.66;4942879;28;118096;-70
2023/02/10 11:10:04;;;;;;;;;;;;;;;15.61;39.72;102656.44;4942684;28;98585;-67
2023/02/10 11:12:34;;;;;;;;;;;;;;;15.52;39.55;102653.28;4960440;28;99755;-69
2023/02/10 11:15:01;;;;;;;;;;;;;;;15.43;39.63;102655.59;4921181;28;109222;-67
2023/02/10 11:17:40;;;;;;;;;;;;;;;15.39;39.51;102646.28;4939488;28;110309;-66
2023/02/10 11:20:12;;;;;;;;;;;;;;;15.36;39.67;102646.78;4940913;28;126420;-67
2023/02/10 11:22:39;;;;;;;;;;;;;;;15.33;39.54;102641.88;4956984;28;99587;-70
2023/02/10 11:25:32;;;;;;;;;;;;;;;15.33;39.39;102651.91;4942303;28;104039;-66
2023/02/10 11:27:59;;;;;;;;;;;;;;;15.33;39.24;102643.75;4936897;28;97920;-68
2023/02/10 11:30:28;;;;;;;;;;;;;;;15.29;39.68;102651.59;4925893;28;99190;-67
2023/02/10 11:32:54;;;;;;;;;;;;;;;15.21;39.99;102646.56;4943063;28;99552;-67
2023/02/10 11:35:19;;;;;;;;;;;;;;;15.14;39.96;102644.00;4924606;28;113175;-70
2023/02/10 11:38:10;;;;;;;;;;;;;;;15.09;39.94;102645.78;4925534;28;122603;-67
2023/02/10 11:40:55;;;;;;;;;;;;;;;15.05;39.82;102652.75;4942187;28;99788;-70
2023/02/10 11:43:27;;;;;;;;;;;;;;;14.95;39.62;102640.66;4955918;28;98588;-70
2023/02/10 11:45:55;;;;;;;;;;;;;;;14.86;39.79;102642.13;4939645;28;98097;-67
2023/02/10 11:48:22;;;;;;;;;;;;;;;14.84;39.61;102646.16;4939248;28;98121;-70
2023/02/10 11:50:50;;;;;;;;;;;;;;;14.70;39.89;102648.34;4930799;28;98116;-69
2023/02/10 11:53:25;;;;;;;;;;;;;;;14.61;39.93;102642.47;4945357;28;98148;-67
2023/02/10 11:56:01;;;;;;;;;;;;;;;14.54;40.07;102640.97;4937870;28;102125;-67
2023/02/10 11:58:59;;;;;;;;;;;;;;;14.52;39.95;102629.53;4940908;28;98231;-69
2023/02/10 12:01:40;;;;;;;;;;;;;;;14.51;39.80;102633.31;4916105;28;98157;-67
2023/02/10 12:04:25;;;;;;;;;;;;;;;14.55;40.00;102631.78;4959004;28;99012;-67
2023/02/10 12:07:06;;;;;;;;;;;;;;;14.57;39.97;102635.06;4957849;28;98586;-68
2023/02/10 12:09:40;;;;;;;;;;;;;;;14.57;39.81;102635.88;4936892;28;98324;-68
2023/02/10 12:12:22;;;;;;;;;;;;;;;14.55;39.64;102624.44;4921932;28;129304;-67
2023/02/10 12:14:59;;;;;;;;;;;;;;;14.59;40.07;102619.38;4957552;28;108283;-69
2023/02/10 12:17:29;;;;;;;;;;;;;;;14.63;39.84;102624.06;4955003;28;98042;-70
2023/02/10 12:20:34;;;;;;;;;;;;;;;14.60;39.72;102623.72;4941977;28;107742;-69
2023/02/10 12:23:22;;;;;;;;;;;;;;;14.59;40.00;102627.50;4955233;28;98166;-67
2023/02/10 12:26:05;;;;;;;;;;;;;;;14.58;39.69;102623.97;4958177;28;97981;-70
2023/02/10 12:29:00;;;;;;;;;;;;;;;14.61;39.66;102626.19;4923611;28;107039;-69
2023/02/10 12:31:53;;;;;;;;;;;;;;;14.61;39.58;102615.31;4931290;28;110662;-69
2023/02/10 12:34:34;;;;;;;;;;;;;;;14.61;39.91;102628.91;4953168;28;125085;-69
2023/02/10 12:37:20;;;;;;;;;;;;;;;14.62;39.78;102618.84;4955914;28;98318;-67
2023/02/10 12:40:11;;;;;;;;;;;;;;;14.63;39.88;102617.81;4937308;28;97925;-69
2023/02/10 12:42:40;;;;;;;;;;;;;;;14.66;39.68;102614.63;4958438;28;98138;-67
2023/02/10 12:45:51;;;;;;;;;;;;;;;14.70;39.68;102613.06;4958181;28;98404;-70
2023/02/10 12:48:37;;;;;;;;;;;;;;;14.71;39.53;102609.28;4899461;28;104279;-72
2023/02/10 12:51:11;;;;;;;;;;;;;;;14.76;39.78;102609.38;4884882;28;98447;-67